Time;durP1;ratioP1;P1;durP2;ratioP2;P2;SDS_P1;SDS_P2;PMS_P1;PMS_P2;Temp;Humidity;BMP_temperature;BMP_pressure;BME280_temperature;BME280_humidity;BME280_pressure;Samples;Min_cycle;Max_cycle;Signal;HPM_P1;HPM_P2
2023/10/05 00:01:17;;;;;;;1.65;0.63;;;18.70;38.60;;;;;;5052502;28;20498;-67
2023/10/05 00:03:47;;;;;;;2.83;0.77;;;18.80;38.80;;;;;;5052641;28;20029;-67
2023/10/05 00:06:15;;;;;;;1.92;0.80;;;18.80;37.50;;;;;;5051232;28;20044;-67
2023/10/05 00:08:48;;;;;;;0.85;0.60;;;18.80;37.70;;;;;;5052575;28;20104;-67
2023/10/05 00:11:31;;;;;;;1.13;0.63;;;18.80;37.20;;;;;;5052510;28;20120;-67
2023/10/05 00:13:59;;;;;;;2.85;0.88;;;18.80;37.80;;;;;;5052502;28;20435;-67
2023/10/05 00:16:36;;;;;;;1.38;0.70;;;18.90;39.30;;;;;;5051199;28;20107;-67
2023/10/05 00:19:15;;;;;;;1.52;0.90;;;19.00;39.20;;;;;;5052300;28;20041;-67
2023/10/05 00:22:02;;;;;;;1.65;0.70;;;19.00;39.00;;;;;;5052632;28;20037;-67
2023/10/05 00:24:36;;;;;;;2.45;0.80;;;19.10;37.90;;;;;;5052421;28;20025;-67
2023/10/05 00:27:10;;;;;;;3.67;0.90;;;19.10;38.30;;;;;;5052100;28;20049;-67
2023/10/05 00:29:41;;;;;;;1.45;0.80;;;19.10;37.30;;;;;;5052232;28;20040;-67
2023/10/05 00:32:15;;;;;;;1.73;0.70;;;19.10;35.30;;;;;;5051326;28;20033;-67
2023/10/05 00:34:51;;;;;;;1.92;0.82;;;19.10;34.70;;;;;;5052610;28;20029;-67
2023/10/05 00:37:19;;;;;;;1.83;0.70;;;19.10;36.20;;;;;;5052227;28;20040;-67
2023/10/05 00:39:49;;;;;;;1.05;0.68;;;19.10;36.70;;;;;;5051868;28;20041;-67
2023/10/05 00:42:16;;;;;;;1.97;0.77;;;19.20;37.10;;;;;;5054430;28;20029;-68
2023/10/05 00:44:44;;;;;;;0.60;0.45;;;19.20;36.50;;;;;;5072115;28;20278;-67
2023/10/05 00:47:14;;;;;;;3.80;0.90;;;19.20;36.80;;;;;;5072352;28;20044;-68
2023/10/05 00:50:03;;;;;;;1.10;0.52;;;19.30;35.60;;;;;;5072223;28;20051;-67
2023/10/05 00:52:30;;;;;;;1.50;0.70;;;19.30;35.90;;;;;;5056344;28;20037;-67
2023/10/05 00:54:59;;;;;;;1.35;0.70;;;19.30;36.00;;;;;;5054666;28;20391;-67
2023/10/05 00:57:27;;;;;;;2.07;0.80;;;19.40;35.50;;;;;;5072033;28;20402;-67
2023/10/05 01:00:27;;;;;;;1.42;0.50;;;19.40;34.40;;;;;;5071857;28;20036;-67
2023/10/05 01:02:45;;;;;;;3.03;0.73;;;19.50;35.00;;;;;;5071273;28;20059;-67
2023/10/05 01:05:24;;;;;;;2.33;0.80;;;19.50;34.90;;;;;;5072243;28;20020;-67
2023/10/05 01:08:04;;;;;;;0.98;0.70;;;19.50;35.70;;;;;;5055760;28;20041;-67
2023/10/05 01:10:48;;;;;;;3.10;0.70;;;19.50;35.40;;;;;;5071792;28;20041;-67
2023/10/05 01:13:32;;;;;;;1.08;0.68;;;19.60;33.60;;;;;;5056230;28;20044;-67
2023/10/05 01:16:03;;;;;;;0.75;0.63;;;19.60;33.70;;;;;;5071898;28;20060;-67
2023/10/05 01:18:31;;;;;;;1.10;0.80;;;19.70;33.90;;;;;;5071669;28;20541;-67
2023/10/05 01:21:03;;;;;;;17.15;1.02;;;19.70;33.40;;;;;;5071685;28;20045;-67
2023/10/05 01:23:38;;;;;;;0.90;0.60;;;19.70;33.20;;;;;;5071905;28;20071;-67
2023/10/05 01:26:12;;;;;;;1.55;0.52;;;19.70;32.90;;;;;;5071416;28;20540;-67
2023/10/05 01:28:43;;;;;;;1.25;0.50;;;19.70;32.80;;;;;;5071687;28;20043;-67
2023/10/05 01:31:21;;;;;;;0.63;0.52;;;19.70;32.00;;;;;;5071593;28;20052;-67
2023/10/05 01:33:48;;;;;;;3.38;0.65;;;19.80;31.30;;;;;;5071731;28;20047;-67
2023/10/05 01:36:22;;;;;;;3.13;0.60;;;19.80;31.50;;;;;;5071437;28;20378;-67
2023/10/05 01:38:53;;;;;;;2.45;0.80;;;19.80;31.60;;;;;;5071907;28;20067;-67
2023/10/05 01:41:21;;;;;;;2.15;0.93;;;19.80;31.50;;;;;;5071659;28;20044;-67
2023/10/05 01:43:48;;;;;;;0.82;0.68;;;19.80;31.50;;;;;;5071767;28;20045;-67
2023/10/05 01:46:16;;;;;;;2.20;0.95;;;19.80;30.80;;;;;;5071583;28;20025;-67
2023/10/05 01:48:43;;;;;;;3.15;0.75;;;19.80;29.80;;;;;;5071395;28;20036;-67
2023/10/05 01:51:15;;;;;;;1.23;0.70;;;19.90;28.40;;;;;;5037064;28;20043;-67
2023/10/05 01:53:44;;;;;;;1.27;0.70;;;19.80;27.40;;;;;;5071477;28;20052;-67
2023/10/05 01:56:20;;;;;;;1.70;0.80;;;19.90;27.90;;;;;;5073386;28;20032;-67
2023/10/05 01:58:53;;;;;;;8.85;1.23;;;19.90;28.50;;;;;;5075048;28;20086;-67
2023/10/05 02:01:20;;;;;;;1.85;0.90;;;20.00;28.30;;;;;;5074862;28;20029;-67
2023/10/05 02:03:53;;;;;;;5.47;1.05;;;20.00;27.40;;;;;;5074838;28;20040;-67
2023/10/05 02:06:21;;;;;;;3.75;0.82;;;20.00;27.20;;;;;;5058152;28;20131;-67
2023/10/05 02:08:48;;;;;;;1.85;0.70;;;20.00;28.90;;;;;;5074951;28;20042;-67
2023/10/05 02:11:23;;;;;;;1.38;0.75;;;20.00;29.70;;;;;;5074698;28;20437;-67
2023/10/05 02:13:57;;;;;;;5.10;1.30;;;20.00;29.60;;;;;;5074834;28;20488;-67
2023/10/05 02:16:26;;;;;;;2.85;1.05;;;20.10;30.10;;;;;;5074470;28;20475;-67
2023/10/05 02:18:55;;;;;;;1.30;1.00;;;20.10;29.60;;;;;;5074833;28;20033;-67
2023/10/05 02:21:36;;;;;;;17.98;1.88;;;20.10;29.80;;;;;;5074873;28;20044;-67
2023/10/05 02:24:16;;;;;;;7.10;0.90;;;20.20;27.10;;;;;;5074537;28;20588;-67
2023/10/05 02:29:30;;;;;;;9.35;0.85;;;20.20;26.70;;;;;;5059288;28;20039;-68
2023/10/05 02:37:04;;;;;;;1.65;0.82;;;20.20;27.50;;;;;;5074385;28;20039;-67
2023/10/05 02:39:41;;;;;;;1.15;0.75;;;20.20;29.00;;;;;;5073973;28;20041;-67
2023/10/05 02:42:12;;;;;;;2.08;0.57;;;20.20;29.10;;;;;;5073802;28;20108;-67
2023/10/05 02:44:40;;;;;;;1.02;0.65;;;20.20;29.90;;;;;;5074598;28;20494;-67
2023/10/05 02:47:14;;;;;;;2.28;0.63;;;20.30;28.90;;;;;;5074075;28;20113;-67
2023/10/05 02:49:47;;;;;;;4.32;0.75;;;20.30;29.00;;;;;;5057496;28;20028;-67
2023/10/05 02:52:16;;;;;;;3.92;0.60;;;20.30;29.20;;;;;;5056176;28;20041;-67
2023/10/05 02:54:49;;;;;;;4.68;0.70;;;20.30;27.80;;;;;;5074047;28;20036;-67
2023/10/05 02:57:16;;;;;;;2.20;0.98;;;20.30;27.60;;;;;;5074052;28;20029;-67
2023/10/05 02:59:44;;;;;;;7.25;1.13;;;20.30;28.20;;;;;;5073966;28;20039;-67
2023/10/05 03:02:14;;;;;;;5.20;0.90;;;20.40;27.10;;;;;;5073879;28;20056;-67
2023/10/05 03:04:45;;;;;;;2.80;0.55;;;20.30;27.40;;;;;;5055352;28;20060;-67
2023/10/05 03:07:16;;;;;;;1.33;0.60;;;20.30;27.10;;;;;;5073474;28;20041;-67
2023/10/05 03:09:47;;;;;;;3.55;0.90;;;20.30;26.70;;;;;;5056328;28;20249;-67
2023/10/05 03:12:14;;;;;;;2.28;0.90;;;20.30;25.80;;;;;;5073723;28;20032;-67
2023/10/05 03:14:45;;;;;;;1.55;0.80;;;20.30;26.20;;;;;;5072964;28;20044;-67
2023/10/05 03:17:32;;;;;;;3.25;1.00;;;20.40;26.60;;;;;;5067810;28;20079;-68
2023/10/05 03:19:59;;;;;;;4.65;0.73;;;20.40;25.10;;;;;;5068165;28;20047;-68
2023/10/05 03:22:26;;;;;;;1.42;0.70;;;20.30;25.10;;;;;;5070737;28;20037;-67
2023/10/05 03:24:53;;;;;;;1.88;0.80;;;20.30;25.60;;;;;;5070472;28;20032;-68
2023/10/05 03:27:22;;;;;;;0.82;0.60;;;20.40;26.50;;;;;;5070524;28;20517;-68
2023/10/05 03:30:03;;;;;;;1.80;0.82;;;20.40;25.20;;;;;;5070085;28;20044;-68
2023/10/05 03:32:31;;;;;;;2.97;0.75;;;20.50;26.10;;;;;;5069894;28;20036;-68
2023/10/05 03:34:58;;;;;;;4.70;0.80;;;20.50;25.60;;;;;;5070422;28;20071;-68
2023/10/05 03:37:29;;;;;;;2.13;0.90;;;20.40;26.10;;;;;;5070391;28;20475;-68
2023/10/05 03:42:26;;;;;;;2.75;0.65;;;20.40;27.30;;;;;;5066682;28;20410;-68
2023/10/05 03:45:03;;;;;;;11.45;1.50;;;20.40;27.70;;;;;;5050642;28;20041;-69
2023/10/05 03:47:31;;;;;;;3.35;1.13;;;20.40;26.80;;;;;;5049856;28;20091;-69
2023/10/05 03:49:58;;;;;;;4.05;1.08;;;20.40;27.70;;;;;;5050217;28;20458;-70
2023/10/05 03:52:29;;;;;;;1.05;0.70;;;20.40;27.50;;;;;;5050464;28;20086;-68
2023/10/05 03:55:09;;;;;;;0.73;0.65;;;20.40;27.70;;;;;;5049724;28;20044;-68
2023/10/05 03:57:37;;;;;;;3.17;1.15;;;20.40;27.80;;;;;;5049951;28;20364;-68
2023/10/05 04:00:23;;;;;;;4.40;0.85;;;20.50;27.60;;;;;;5032280;28;20037;-68
2023/10/05 04:02:54;;;;;;;3.08;0.95;;;20.40;27.40;;;;;;5034979;28;20033;-68
2023/10/05 04:05:22;;;;;;;2.72;0.60;;;20.50;27.30;;;;;;5049032;28;20087;-69
2023/10/05 04:07:51;;;;;;;2.90;0.70;;;20.50;27.90;;;;;;5049466;28;20048;-69
2023/10/05 04:10:43;;;;;;;1.10;0.50;;;20.40;28.00;;;;;;5049711;28;20029;-68
2023/10/05 04:13:11;;;;;;;2.42;0.70;;;20.40;27.80;;;;;;5049351;28;20454;-68
2023/10/05 04:15:40;;;;;;;6.97;0.93;;;20.50;27.60;;;;;;5031685;28;20384;-69
2023/10/05 04:18:11;;;;;;;1.65;0.68;;;20.50;28.20;;;;;;5031472;28;20155;-68
2023/10/05 04:20:43;;;;;;;0.55;0.55;;;20.50;28.50;;;;;;5031540;28;20372;-68
2023/10/05 04:23:18;;;;;;;0.82;0.60;;;20.50;27.80;;;;;;5049139;28;20154;-67
2023/10/05 04:25:45;;;;;;;5.45;0.68;;;20.50;28.10;;;;;;5032547;28;20436;-67
2023/10/05 04:28:12;;;;;;;4.50;1.00;;;20.60;27.20;;;;;;5049812;28;20064;-67
2023/10/05 04:30:39;;;;;;;2.33;0.80;;;20.60;27.90;;;;;;5049141;28;20037;-67
2023/10/05 04:33:07;;;;;;;3.45;0.70;;;20.50;28.60;;;;;;5049264;28;20518;-68
2023/10/05 04:35:42;;;;;;;1.50;0.70;;;20.60;28.00;;;;;;5049203;28;20087;-67
2023/10/05 04:38:10;;;;;;;0.82;0.55;;;20.60;28.10;;;;;;5049485;28;20033;-68
2023/10/05 04:40:38;;;;;;;2.40;0.82;;;20.60;28.60;;;;;;5049209;28;20506;-68
2023/10/05 04:43:11;;;;;;;5.93;0.88;;;20.60;28.20;;;;;;5048853;28;20495;-68
2023/10/05 04:45:42;;;;;;;5.07;1.20;;;20.50;27.80;;;;;;5048633;28;20029;-68
2023/10/05 04:48:12;;;;;;;8.00;0.90;;;20.60;28.00;;;;;;5048990;28;20040;-68
2023/10/05 04:50:43;;;;;;;7.05;1.05;;;20.60;27.40;;;;;;5031706;28;20069;-68
2023/10/05 04:53:13;;;;;;;5.18;1.20;;;20.50;28.60;;;;;;5048747;28;20557;-68
2023/10/05 04:55:45;;;;;;;2.22;0.77;;;20.50;28.80;;;;;;5048806;28;20071;-68
2023/10/05 04:58:21;;;;;;;4.55;0.90;;;20.50;28.10;;;;;;5048977;28;20056;-69
2023/10/05 05:08:35;;;;;;;3.80;0.80;;;20.50;29.50;;;;;;5049599;28;20041;-68
2023/10/05 05:11:03;;;;;;;1.90;1.08;;;20.50;29.50;;;;;;5046871;28;20069;-68
2023/10/05 05:13:30;;;;;;;7.85;0.90;;;20.60;28.80;;;;;;5048728;28;20047;-68
2023/10/05 05:15:57;;;;;;;4.72;1.10;;;20.50;29.00;;;;;;5048799;28;20491;-68
2023/10/05 05:18:24;;;;;;;2.67;0.70;;;20.50;28.90;;;;;;5048953;28;20037;-68
2023/10/05 05:20:53;;;;;;;1.75;0.88;;;20.40;28.70;;;;;;5049065;28;20040;-67
2023/10/05 05:23:21;;;;;;;2.40;0.90;;;20.50;29.60;;;;;;5048530;28;20029;-68
2023/10/05 05:25:54;;;;;;;2.17;0.80;;;20.50;29.40;;;;;;5048982;28;20122;-68
2023/10/05 05:28:22;;;;;;;4.93;1.02;;;20.50;30.10;;;;;;5048895;28;20095;-68
2023/10/05 05:30:50;;;;;;;6.18;1.08;;;20.60;29.70;;;;;;5049954;28;20048;-68
2023/10/05 05:33:17;;;;;;;0.85;0.73;;;20.50;30.10;;;;;;5052298;28;20138;-69
2023/10/05 05:35:45;;;;;;;1.50;0.70;;;20.50;30.20;;;;;;5034668;28;20483;-68
2023/10/05 05:38:12;;;;;;;5.63;0.85;;;20.50;30.10;;;;;;5053153;28;20029;-68
2023/10/05 05:40:39;;;;;;;2.33;0.52;;;20.50;29.80;;;;;;5034888;28;20048;-68
2023/10/05 05:43:11;;;;;;;3.33;0.82;;;20.50;29.90;;;;;;5052044;28;20060;-68
2023/10/05 05:45:44;;;;;;;1.20;0.93;;;20.50;30.20;;;;;;5052216;28;20116;-68
2023/10/05 05:48:15;;;;;;;2.47;0.70;;;20.50;30.40;;;;;;5035579;28;20033;-69
2023/10/05 05:50:43;;;;;;;1.35;0.80;;;20.50;31.80;;;;;;5052270;28;20043;-68
2023/10/05 05:53:16;;;;;;;2.00;0.88;;;20.40;30.00;;;;;;5034149;28;20033;-68
2023/10/05 05:56:01;;;;;;;3.40;0.90;;;20.40;30.40;;;;;;5051957;28;20115;-69
2023/10/05 05:58:28;;;;;;;2.10;0.73;;;20.40;30.40;;;;;;5052076;28;20033;-68
2023/10/05 06:00:57;;;;;;;2.85;0.77;;;20.40;30.80;;;;;;5052117;28;20036;-68
2023/10/05 06:03:27;;;;;;;3.58;0.90;;;20.40;31.10;;;;;;5052444;28;20425;-68
2023/10/05 06:05:55;;;;;;;5.57;1.38;;;20.40;32.70;;;;;;5051780;28;20040;-67
2023/10/05 06:08:23;;;;;;;3.28;0.73;;;20.40;32.20;;;;;;5052007;28;20099;-67
2023/10/05 06:10:51;;;;;;;10.55;1.40;;;20.30;31.90;;;;;;5050504;28;20381;-67
2023/10/05 06:13:19;;;;;;;4.85;0.75;;;20.30;31.70;;;;;;5051667;28;20130;-68
2023/10/05 06:15:46;;;;;;;1.33;0.80;;;20.30;32.10;;;;;;5051974;28;20032;-68
2023/10/05 06:18:14;;;;;;;1.83;0.77;;;20.30;31.80;;;;;;5051420;28;20048;-69
2023/10/05 06:20:41;;;;;;;0.70;0.50;;;20.30;31.80;;;;;;5051757;28;20032;-68
2023/10/05 06:23:08;;;;;;;5.38;0.85;;;20.20;32.20;;;;;;5051264;28;20132;-69
2023/10/05 06:25:35;;;;;;;1.17;0.70;;;20.30;32.70;;;;;;5051747;28;20055;-68
2023/10/05 06:28:02;;;;;;;2.67;0.70;;;20.20;32.40;;;;;;5052225;28;20036;-68
2023/10/05 06:30:32;;;;;;;1.00;0.60;;;20.20;32.20;;;;;;5087517;22;20079;-72
2023/10/05 06:32:59;;;;;;;3.42;0.98;;;20.20;31.90;;;;;;5071142;28;20122;-73
2023/10/05 06:35:26;;;;;;;4.05;0.80;;;20.20;32.00;;;;;;5050936;28;21464;-72
2023/10/05 06:37:55;;;;;;;4.80;1.00;;;20.10;32.40;;;;;;5068602;28;20509;-72
2023/10/05 06:40:22;;;;;;;5.72;0.82;;;20.10;31.90;;;;;;5069985;28;20063;-71
2023/10/05 06:42:51;;;;;;;5.10;0.80;;;20.10;32.30;;;;;;5070172;28;20139;-72
2023/10/05 06:45:23;;;;;;;2.78;0.50;;;20.00;32.20;;;;;;5070331;28;20039;-72
2023/10/05 06:47:51;;;;;;;0.30;0.30;;;20.00;31.40;;;;;;5068325;28;20052;-71
2023/10/05 06:50:18;;;;;;;1.70;0.70;;;19.80;31.40;;;;;;5048417;28;20029;-71
2023/10/05 06:52:49;;;;;;;4.28;0.93;;;19.80;31.90;;;;;;5070379;28;20029;-71
2023/10/05 06:55:21;;;;;;;2.45;0.60;;;19.80;31.90;;;;;;5070227;28;20024;-72
2023/10/05 06:57:51;;;;;;;1.80;1.00;;;19.70;31.50;;;;;;5071271;28;20449;-71
2023/10/05 07:00:22;;;;;;;;;;;19.70;32.00;;;;;;5069061;28;20376;-71
2023/10/05 07:02:50;;;;;;;3.00;0.80;;;19.70;32.40;;;;;;5053190;28;19958;-72
2023/10/05 07:05:17;;;;;;;2.35;0.80;;;19.70;32.50;;;;;;5052326;28;20064;-71
2023/10/05 07:07:45;;;;;;;2.38;0.70;;;19.70;32.50;;;;;;5035527;28;20048;-71
2023/10/05 07:10:17;;;;;;;1.60;0.57;;;19.70;32.20;;;;;;5052155;28;20068;-71
2023/10/05 07:12:48;;;;;;;2.47;0.85;;;19.70;32.60;;;;;;5064387;28;20040;-72
2023/10/05 07:15:19;;;;;;;2.08;0.63;;;19.70;32.70;;;;;;5036027;28;20044;-72
2023/10/05 07:17:48;;;;;;;3.15;0.80;;;19.70;32.70;;;;;;5034963;28;20391;-71
2023/10/05 07:20:16;;;;;;;2.67;0.90;;;19.70;32.80;;;;;;5065822;28;20043;-72
2023/10/05 07:22:44;;;;;;;1.42;0.80;;;19.70;32.30;;;;;;5036381;28;20124;-73
2023/10/05 07:25:12;;;;;;;1.98;0.80;;;19.60;32.70;;;;;;5053041;28;20495;-73
2023/10/05 07:27:39;;;;;;;3.35;0.60;;;19.60;33.10;;;;;;5052855;28;20477;-73
2023/10/05 07:30:10;;;;;;;0.70;0.50;;;19.50;32.90;;;;;;5034824;28;20051;-73
2023/10/05 07:32:38;;;;;;;3.33;0.93;;;19.50;33.00;;;;;;5036908;28;20037;-72
2023/10/05 07:35:06;;;;;;;1.58;0.60;;;19.50;33.30;;;;;;5035690;28;20028;-72
2023/10/05 07:37:34;;;;;;;2.22;0.70;;;19.40;33.30;;;;;;5052354;28;20028;-72
2023/10/05 07:40:01;;;;;;;1.73;0.90;;;19.40;33.90;;;;;;5036196;28;20040;-72
2023/10/05 07:42:28;;;;;;;2.33;0.90;;;19.40;34.20;;;;;;5068196;28;20080;-73
2023/10/05 07:44:57;;;;;;;1.95;0.80;;;19.40;34.30;;;;;;5051603;28;20143;-72
2023/10/05 07:47:25;;;;;;;1.75;0.50;;;19.30;34.10;;;;;;5036158;28;20094;-72
2023/10/05 07:49:55;;;;;;;1.95;0.75;;;19.30;34.20;;;;;;5049379;28;20036;-75
2023/10/05 07:52:22;;;;;;;1.95;0.60;;;19.30;34.70;;;;;;5052107;28;20037;-74
2023/10/05 07:54:51;;;;;;;1.65;0.80;;;19.30;34.60;;;;;;5030846;28;20553;-74
2023/10/05 07:57:19;;;;;;;2.45;0.73;;;19.20;34.70;;;;;;5060750;28;20222;-75
2023/10/05 07:59:46;;;;;;;0.93;0.60;;;19.10;35.10;;;;;;5069881;28;20391;-73
2023/10/05 08:02:18;;;;;;;4.97;0.93;;;19.10;35.10;;;;;;5035042;28;20494;-74
2023/10/05 08:04:46;;;;;;;1.73;0.63;;;19.00;35.50;;;;;;5067322;28;20588;-74
2023/10/05 08:07:15;;;;;;;2.50;1.20;;;19.00;35.40;;;;;;5051317;28;20040;-74
2023/10/05 08:09:45;;;;;;;0.60;0.50;;;18.90;35.80;;;;;;5069829;28;20071;-74
2023/10/05 08:12:12;;;;;;;1.60;0.75;;;18.90;36.00;;;;;;5033461;28;20028;-73
2023/10/05 08:14:40;;;;;;;1.80;0.90;;;18.80;36.10;;;;;;5051816;28;20032;-75
2023/10/05 08:17:07;;;;;;;1.92;0.90;;;18.80;36.20;;;;;;5049375;28;20499;-73
2023/10/05 08:19:35;;;;;;;1.70;0.90;;;18.80;36.60;;;;;;5017523;28;20040;-72
2023/10/05 08:22:02;;;;;;;2.83;1.00;;;18.80;36.70;;;;;;5069618;28;20036;-73
2023/10/05 08:24:31;;;;;;;20.08;5.75;;;18.80;37.00;;;;;;5051001;28;20064;-72
2023/10/05 08:26:58;;;;;;;3.10;1.63;;;18.70;37.60;;;;;;5069802;28;20132;-72
2023/10/05 08:29:27;;;;;;;4.05;1.15;;;18.70;37.60;;;;;;5050871;28;20557;-74
2023/10/05 08:31:55;;;;;;;2.72;0.88;;;18.60;38.40;;;;;;5035526;28;20049;-73
2023/10/05 08:34:22;;;;;;;2.25;0.80;;;18.60;37.90;;;;;;5051551;28;20395;-72
2023/10/05 08:36:53;;;;;;;7.82;3.47;;;18.50;38.60;;;;;;5050356;28;20032;-74
2023/10/05 08:39:27;;;;;;;5.82;2.30;;;18.50;38.90;;;;;;5035239;28;20044;-72
2023/10/05 08:42:07;;;;;;;5.00;2.20;;;18.50;39.10;;;;;;5068883;28;20051;-73
2023/10/05 08:44:41;;;;;;;8.13;3.97;;;18.40;39.10;;;;;;5052401;28;20039;-72
2023/10/05 08:47:13;;;;;;;14.48;8.20;;;18.30;39.10;;;;;;5051098;28;20040;-71
2023/10/05 08:49:44;;;;;;;9.98;4.82;;;18.30;39.30;;;;;;5068933;28;20036;-71
2023/10/05 08:52:19;;;;;;;8.30;5.15;;;18.30;39.70;;;;;;5069180;28;20036;-73
2023/10/05 08:54:47;;;;;;;6.28;2.63;;;18.30;39.80;;;;;;5035217;28;20028;-72
2023/10/05 08:57:16;;;;;;;6.75;1.40;;;18.30;40.10;;;;;;5033660;28;20067;-74
2023/10/05 08:59:47;;;;;;;2.23;1.13;;;18.30;40.90;;;;;;5035621;28;20108;-73
2023/10/05 09:02:24;;;;;;;2.03;1.20;;;18.30;40.70;;;;;;5069663;28;20064;-75
2023/10/05 09:04:59;;;;;;;4.38;1.38;;;18.20;40.80;;;;;;5070383;28;20108;-73
2023/10/05 09:07:37;;;;;;;2.50;1.30;;;18.20;40.90;;;;;;5054132;28;20049;-72
2023/10/05 09:10:14;;;;;;;3.60;1.08;;;18.10;41.40;;;;;;5039987;28;20032;-74
2023/10/05 09:12:42;;;;;;;2.47;1.13;;;18.10;41.40;;;;;;5054054;28;20395;-74
2023/10/05 09:17:59;;;;;;;2.45;1.20;;;18.00;41.70;;;;;;5037361;28;20033;-73
2023/10/05 09:20:31;;;;;;;1.80;0.85;;;17.90;41.80;;;;;;5055314;28;20028;-75
2023/10/05 09:23:09;;;;;;;2.10;0.90;;;17.80;41.20;;;;;;5055185;28;20037;-71
2023/10/05 09:25:38;;;;;;;1.95;0.90;;;17.80;41.30;;;;;;5055338;28;20086;-71
2023/10/05 09:28:19;;;;;;;1.55;0.85;;;17.80;40.90;;;;;;5053116;28;20049;-72
2023/10/05 09:30:56;;;;;;;2.40;1.00;;;17.80;41.10;;;;;;5025233;28;20060;-77
2023/10/05 09:33:28;;;;;;;1.45;0.80;;;17.80;41.40;;;;;;5055067;28;20029;-73
2023/10/05 09:36:08;;;;;;;2.70;0.80;;;17.70;41.60;;;;;;5054297;28;20025;-73
2023/10/05 09:38:40;;;;;;;1.23;1.10;;;17.70;41.70;;;;;;5068726;28;20060;-73
2023/10/05 09:41:08;;;;;;;1.15;0.80;;;17.70;42.00;;;;;;5030880;28;20036;-75
2023/10/05 09:43:39;;;;;;;4.10;0.90;;;17.70;42.00;;;;;;5072569;28;20555;-74
2023/10/05 09:46:09;;;;;;;4.68;0.93;;;17.70;42.10;;;;;;5054819;28;20437;-73
2023/10/05 09:48:38;;;;;;;1.20;0.82;;;17.70;41.90;;;;;;5054629;28;20044;-75
2023/10/05 09:51:10;;;;;;;3.28;0.95;;;17.70;42.00;;;;;;5037157;28;20037;-72
2023/10/05 09:53:44;;;;;;;2.85;0.82;;;17.60;41.80;;;;;;5071594;28;20044;-74
2023/10/05 09:56:12;;;;;;;1.13;0.88;;;17.60;42.60;;;;;;5030769;28;20116;-73
2023/10/05 09:58:45;;;;;;;1.98;0.88;;;17.60;42.30;;;;;;5053930;28;20582;-75
2023/10/05 10:01:20;;;;;;;1.08;0.80;;;17.60;42.30;;;;;;5037374;28;20027;-75
2023/10/05 10:03:49;;;;;;;3.88;0.80;;;17.50;42.10;;;;;;5070582;28;20491;-74
2023/10/05 10:06:24;;;;;;;2.65;1.00;;;17.50;42.60;;;;;;5054201;28;20048;-74
2023/10/05 10:08:57;;;;;;;2.85;1.00;;;17.50;42.70;;;;;;5071820;28;20094;-73
2023/10/05 10:11:31;;;;;;;2.55;1.10;;;17.50;42.70;;;;;;5052831;28;20090;-74
2023/10/05 10:14:01;;;;;;;1.85;0.80;;;17.40;43.00;;;;;;5047969;28;20099;-73
2023/10/05 10:16:29;;;;;;;3.40;0.95;;;17.40;42.60;;;;;;5051674;28;20032;-73
2023/10/05 10:19:08;;;;;;;2.25;0.90;;;17.40;42.70;;;;;;5034666;28;20038;-74
2023/10/05 10:22:07;;;;;;;1.55;1.00;;;17.50;42.80;;;;;;5051690;28;20048;-75
2023/10/05 10:24:30;;;;;;;2.28;1.08;;;17.40;42.80;;;;;;5059360;28;20047;-74
2023/10/05 10:27:15;;;;;;;1.83;1.00;;;17.30;43.50;;;;;;5071634;28;20076;-73
2023/10/05 10:30:04;;;;;;;1.85;0.95;;;17.30;43.00;;;;;;5054260;28;20067;-74
2023/10/05 10:32:31;;;;;;;2.45;1.10;;;17.30;43.00;;;;;;5071224;28;20391;-74
2023/10/05 10:35:13;;;;;;;1.58;1.00;;;17.30;43.20;;;;;;5053276;28;20033;-73
2023/10/05 10:37:44;;;;;;;2.67;0.95;;;17.30;43.40;;;;;;5055331;28;20063;-76
2023/10/05 10:40:25;;;;;;;0.70;0.70;;;17.20;43.20;;;;;;5069607;28;20048;-73
2023/10/05 10:43:06;;;;;;;2.05;1.10;;;17.20;43.40;;;;;;5054949;28;20499;-75
2023/10/05 10:45:41;;;;;;;3.78;0.95;;;17.20;43.90;;;;;;5054934;28;20195;-74
2023/10/05 10:48:32;;;;;;;3.45;0.95;;;17.20;43.70;;;;;;5038687;28;20494;-74
2023/10/05 10:51:00;;;;;;;3.60;0.98;;;17.10;43.10;;;;;;5054123;28;20056;-75
2023/10/05 10:53:31;;;;;;;2.45;1.20;;;17.10;42.90;;;;;;5070949;28;20415;-75
2023/10/05 10:56:04;;;;;;;2.83;1.20;;;17.10;43.10;;;;;;5053205;28;20056;-72
2023/10/05 10:58:33;;;;;;;2.33;0.90;;;17.10;42.80;;;;;;5054351;28;20028;-73
2023/10/05 11:01:04;;;;;;;1.70;0.85;;;17.00;42.60;;;;;;5053470;28;20041;-73
2023/10/05 11:03:32;;;;;;;2.53;0.75;;;17.00;43.90;;;;;;5036354;28;20095;-73
2023/10/05 11:06:00;;;;;;;1.50;0.77;;;17.00;43.30;;;;;;5059458;28;20040;-73
2023/10/05 11:08:34;;;;;;;1.98;0.88;;;17.00;44.10;;;;;;5056207;28;20099;-73
2023/10/05 11:11:09;;;;;;;1.13;0.75;;;17.00;43.90;;;;;;5073312;28;20037;-73
2023/10/05 11:13:43;;;;;;;2.00;0.73;;;16.90;43.60;;;;;;5073438;28;20069;-73
2023/10/05 11:16:11;;;;;;;1.75;0.85;;;16.90;42.70;;;;;;5073519;28;20355;-73
2023/10/05 11:19:03;;;;;;;2.95;0.80;;;16.90;42.30;;;;;;5073137;28;20490;-73
2023/10/05 11:21:34;;;;;;;2.13;0.80;;;16.90;42.40;;;;;;5042489;28;20050;-73
2023/10/05 11:24:07;;;;;;;1.73;0.80;;;17.00;42.10;;;;;;5035491;28;20048;-73
2023/10/05 11:29:42;;;;;;;1.92;0.80;;;16.90;42.30;;;;;;5056209;28;20048;-73
2023/10/05 11:32:13;;;;;;;1.08;0.52;;;16.90;42.10;;;;;;5056907;28;20040;-73
2023/10/05 11:34:44;;;;;;;3.08;0.65;;;16.90;42.50;;;;;;5039006;28;20044;-73
2023/10/05 11:37:18;;;;;;;4.07;0.80;;;16.90;42.70;;;;;;5072726;28;20514;-73
2023/10/05 11:39:58;;;;;;;2.30;0.75;;;16.80;43.10;;;;;;5038578;28;20033;-73
2023/10/05 11:42:25;;;;;;;;;;;16.80;43.10;;;;;;5055812;28;20032;-73
2023/10/05 11:44:59;;;;;;;2.63;0.63;;;16.80;43.10;;;;;;5073217;28;19909;-73
2023/10/05 11:47:44;;;;;;;2.92;0.80;;;16.80;42.50;;;;;;5038214;28;20420;-73
2023/10/05 11:50:24;;;;;;;1.90;0.52;;;16.80;43.00;;;;;;5057505;28;20052;-73
2023/10/05 11:52:54;;;;;;;2.50;0.75;;;16.80;42.90;;;;;;5057084;28;20039;-73
2023/10/05 11:55:22;;;;;;;4.10;0.75;;;16.80;42.50;;;;;;5055552;28;20487;-73
2023/10/05 11:57:51;;;;;;;4.25;0.88;;;16.70;42.70;;;;;;5034895;28;20040;-73
2023/10/05 12:00:19;;;;;;;1.53;0.80;;;16.70;42.20;;;;;;5019264;28;20029;-73
2023/10/05 12:02:46;;;;;;;2.05;1.13;;;16.80;42.90;;;;;;5052608;28;20033;-73
2023/10/05 12:05:13;;;;;;;3.53;1.13;;;16.70;42.60;;;;;;5034860;28;20107;-73
2023/10/05 12:07:41;;;;;;;4.55;1.05;;;16.70;42.50;;;;;;5034792;28;20687;-73
2023/10/05 12:10:13;;;;;;;3.17;1.10;;;16.70;42.60;;;;;;5019398;28;20033;-73
2023/10/05 12:12:50;;;;;;;2.85;0.93;;;16.70;42.60;;;;;;5054479;28;20032;-73
2023/10/05 12:15:17;;;;;;;3.42;0.82;;;16.70;43.40;;;;;;5023544;28;20055;-73
2023/10/05 12:17:45;;;;;;;3.15;1.10;;;16.70;43.20;;;;;;5053975;28;20695;-72
2023/10/05 12:20:16;;;;;;;1.58;0.88;;;16.70;43.10;;;;;;5037127;28;20056;-73
2023/10/05 12:22:44;;;;;;;1.77;0.88;;;16.60;43.50;;;;;;5038726;28;20067;-73
2023/10/05 12:25:14;;;;;;;1.90;0.88;;;16.60;43.30;;;;;;5072750;28;20071;-73
2023/10/05 12:27:42;;;;;;;3.13;1.00;;;16.60;44.60;;;;;;5072035;28;20052;-73
2023/10/05 12:30:14;;;;;;;1.45;0.80;;;16.50;43.50;;;;;;5054284;28;20506;-73
2023/10/05 12:32:42;;;;;;;1.63;0.85;;;16.50;43.40;;;;;;5071605;28;20041;-73
2023/10/05 12:35:13;;;;;;;1.60;0.73;;;16.60;43.40;;;;;;5037399;28;20040;-73
2023/10/05 12:37:47;;;;;;;2.83;0.98;;;16.50;44.10;;;;;;5037599;28;20028;-73
2023/10/05 12:40:18;;;;;;;3.20;1.05;;;16.50;43.60;;;;;;5050444;28;20490;-73
2023/10/05 12:42:54;;;;;;;2.13;0.70;;;16.40;44.00;;;;;;5052109;28;20040;-73
2023/10/05 12:45:22;;;;;;;2.20;0.90;;;16.50;44.10;;;;;;5050977;28;20120;-73
2023/10/05 12:47:54;;;;;;;4.60;1.00;;;16.40;44.70;;;;;;5053731;28;20066;-73
2023/10/05 12:50:27;;;;;;;2.60;0.90;;;16.40;44.60;;;;;;5022178;28;20025;-73
2023/10/05 12:52:56;;;;;;;1.63;0.85;;;16.40;44.40;;;;;;5054187;28;20123;-73
2023/10/05 12:55:23;;;;;;;2.85;1.08;;;16.40;44.50;;;;;;5020625;28;20072;-72
2023/10/05 12:57:52;;;;;;;2.15;0.70;;;16.40;44.80;;;;;;5037115;28;20051;-73
2023/10/05 13:00:31;;;;;;;3.38;1.25;;;16.40;44.70;;;;;;5037670;28;20040;-73
2023/10/05 13:03:01;;;;;;;2.70;0.98;;;16.30;44.50;;;;;;5054995;28;20074;-73
2023/10/05 13:05:29;;;;;;;2.55;1.00;;;16.30;44.30;;;;;;5054155;28;20383;-73
2023/10/05 13:07:57;;;;;;;1.98;0.85;;;16.30;44.30;;;;;;5054027;28;20044;-73
2023/10/05 13:10:26;;;;;;;2.05;1.00;;;16.30;44.80;;;;;;5071743;28;20028;-73
2023/10/05 13:13:00;;;;;;;1.80;1.00;;;16.20;45.30;;;;;;5071114;28;20052;-73
2023/10/05 13:15:34;;;;;;;1.13;0.60;;;16.20;44.90;;;;;;5054321;28;20029;-72
2023/10/05 13:18:25;;;;;;;1.38;0.70;;;16.20;44.90;;;;;;5050081;28;20041;-73
2023/10/05 13:20:54;;;;;;;2.13;1.00;;;16.20;44.90;;;;;;5050592;28;20048;-73
2023/10/05 13:23:27;;;;;;;2.75;1.23;;;16.20;45.10;;;;;;4995936;28;20033;-73
2023/10/05 13:25:59;;;;;;;1.55;0.93;;;16.20;45.50;;;;;;5051260;28;20040;-73
2023/10/05 13:28:27;;;;;;;3.47;0.85;;;16.20;45.10;;;;;;5034830;28;20030;-73
2023/10/05 13:30:55;;;;;;;3.53;0.90;;;16.20;44.60;;;;;;5051216;28;20053;-73
2023/10/05 13:33:34;;;;;;;1.80;0.98;;;16.10;44.60;;;;;;5051132;28;20356;-72